• Join FlightAware (Why Join?)
  • Login
  • US Flag 
Rudolph Flight #1: Arrived! 
01:25PM EST


 

Airport Tracker/Info


-or-


 

Live Flight TrackerFlight Track Log ✈ DAL6034 ✈ 22-Apr-2013 ✈ KLGA - KMHT

Flight Track Log - Related Links

Times and Time Zones

All times are in EDT time to prevent confusion due to time zone crossing. See the DAL6034 flight status page for this flight to view local times or setup timezone preferences in your user account.

Time Position Orientation Groundspeed Altitude Reporting Facility
EDT Latitude Longitude Course Direction KTS MPH feet Rate Location/Type
04:47PM 40.7500 -73.8333 37° Northeast 167 192 2,000  Level New York TRACON
04:48PM 40.7500 -73.7833 90° East 203 234 4,300 2,340 Climbing New York TRACON
04:49PM 40.8167 -73.7667 11° North 225 259 6,700 2,040 Climbing New York TRACON
04:50PM 41.1159 -73.5958 28° Northeast  Level FlightAware Approximate
04:51PM 41.2016 -73.5236 33° Northeast  Level FlightAware Approximate
04:51PM 40.9347 -73.6819 28° Northeast 270 311 10,200  Level Boston Center
04:52PM 41.2879 -73.4526 27° Northeast  Level FlightAware Approximate
04:52PM 41.0039 -73.6364 26° Northeast 290 334 12,000  Level Boston Center
04:53PM 41.3684 -73.3983 37° Northeast  Level FlightAware Approximate
04:53PM 41.0922 -73.5775 27° Northeast 310 357 13,900  Level Boston Center
04:54PM 41.1656 -73.5264 28° Northeast 324 373 15,600 1,800 Climbing Boston Center
04:55PM 41.2600 -73.4644 26° Northeast 324 373 17,500 1,500 Climbing Boston Center
04:56PM 41.3375 -73.4106 28° Northeast 334 384 18,600 1,500 Climbing Boston Center
04:57PM 41.4381 -73.3456 26° Northeast 346 398 20,500 1,140 Climbing Boston Center
04:58PM 41.5094 -73.2828 33° Northeast 346 398 20,900 240 Climbing Boston Center
04:59PM 41.5811 -73.1811 47° Northeast 340 391 21,000  Climbing Boston Center
05:00PM 41.6606 -73.1153 32° Northeast 335 386 21,000  Level Boston Center
05:01PM 41.7503 -73.1275 354° North 302 348 21,000  Level Boston Center
05:02PM 41.8397 -73.1450 352° North 307 353 21,000  Level Boston Center
05:03PM 41.9314 -73.1600 353° North 318 366 21,000  Level Boston Center
05:04PM 42.0250 -73.1750 353° North 328 377 21,000  Level Boston Center
05:05PM 42.1186 -73.1931 352° North 333 383 21,000  Level Boston Center
05:06PM 42.2144 -73.2081 353° North 338 389 21,000  Level Boston Center
05:07PM 42.3100 -73.2289 351° North 343 395 21,000  Level Boston Center
05:08PM 42.3975 -73.2358 357° North 348 400 21,000 -60 Level Boston Center
05:09PM 42.4914 -73.2481 355° North 343 395 20,900 -60 Descending Boston Center
05:10PM 42.5808 -73.2633 353° North 338 389 20,900  Level Boston Center
05:11PM 42.6828 -73.2931 348° North 332 382 21,000  Climbing Boston Center
05:12PM 42.7744 -73.3083 353° North 332 382 21,000  Level Boston Center
05:13PM 42.8575 -73.3208 354° North 332 382 21,000 -240 Level Boston Center
05:14PM 42.9456 -73.2711 22° Northeast 321 369 20,600 -720 Descending Boston Center
05:15PM 42.9608 -73.1408 81° East 286 329 19,600 -840 Descending Boston Center
05:16PM 42.9283 -73.0100 109° East 314 361 19,000 -300 Descending Boston Center
05:17PM 42.9100 -72.8850 101° East 314 361 19,000 -300 Level Boston Center
05:18PM 42.8856 -72.7631 105° East 319 367 18,500 -720 Descending Boston Center
05:19PM 42.8628 -72.6411 104° East 324 373 17,600 -1,260 Descending Boston Center
05:20PM 42.8400 -72.5222 105° East 324 373 16,000 -1,680 Descending Boston Center
05:21PM 42.8192 -72.4089 104° East 318 366 14,300 -1,560 Descending Boston Center
05:22PM 42.7964 -72.3042 106° East 300 345 12,900 -1,500 Descending Boston Center
05:23PM 42.8025 -72.1939 86° East 286 329 11,400 -1,560 Descending Boston Center
05:24PM 42.8103 -72.0750 85° East 286 329 9,800 -1,260 Descending Boston Center
05:25PM 42.8225 -71.9900 79° East 269 310 8,900 -600 Descending Boston Center
05:26PM 42.8744 -71.9047 50° Northeast 252 290 8,700 -780 Descending Boston Center
05:27PM 42.9197 -71.8361 48° Northeast 259 298 7,400 -1,200 Descending Boston Center
05:28PM 42.9672 -71.7647 48° Northeast 237 273 6,300 -1,080 Descending Boston Center
05:29PM 43.0025 -71.7133 47° Northeast 206 237 5,300 -1,080 Descending Boston Center
05:30PM 43.0542 -71.6672 33° Northeast 198 228 4,200 -720 Descending Boston Center
05:31PM 43.1000 -71.6353 27° Northeast 198 228 3,900 -600 Descending Boston Center
05:32PM 43.1056 -71.5669 84° East 163 188 3,100 -420 Descending Boston Center
05:33PM 43.0761 -71.5219 132° Southeast 157 181 3,100  Level Boston Center